Time;durP1;ratioP1;P1;durP2;ratioP2;P2;SDS_P1;SDS_P2;PMS_P1;PMS_P2;Temp;Humidity;BMP_temperature;BMP_pressure;BME280_temperature;BME280_humidity;BME280_pressure;Samples;Min_cycle;Max_cycle;Signal;HPM_P1;HPM_P2
2022/05/31 00:01:14;;;;;;;3.40;1.83;;;8.90;99.90;;;;;;5068737;28;20135;-85
2022/05/31 00:03:40;;;;;;;2.25;1.77;;;9.90;99.90;;;;;;5085165;28;20079;-84
2022/05/31 00:06:06;;;;;;;2.47;1.77;;;9.80;99.90;;;;;;5086559;28;20063;-84
2022/05/31 00:08:33;;;;;;;2.65;1.95;;;8.50;99.90;;;;;;5085840;28;20063;-84
2022/05/31 00:11:00;;;;;;;4.10;2.63;;;8.60;99.90;;;;;;5086356;28;20060;-84
2022/05/31 00:13:27;;;;;;;3.47;1.63;;;9.80;99.90;;;;;;5085343;28;20043;-84
2022/05/31 00:15:53;;;;;;;3.10;2.00;;;8.60;99.90;;;;;;5085915;28;20076;-85
2022/05/31 00:18:18;;;;;;;2.63;1.55;;;9.00;99.90;;;;;;5068125;28;20044;-85
2022/05/31 00:20:44;;;;;;;3.45;2.13;;;10.00;99.90;;;;;;5086306;28;20044;-84
2022/05/31 00:23:10;;;;;;;7.82;1.80;;;8.60;99.90;;;;;;5086485;28;20035;-85
2022/05/31 00:25:36;;;;;;;1.50;1.40;;;8.50;99.90;;;;;;5067513;28;20122;-84
2022/05/31 00:28:02;;;;;;;4.13;1.75;;;9.80;99.90;;;;;;5084638;28;20144;-85
2022/05/31 00:30:29;;;;;;;2.50;1.75;;;8.50;99.90;;;;;;5085549;28;20055;-84
2022/05/31 00:32:55;;;;;;;2.67;2.08;;;8.60;99.90;;;;;;5084350;28;20043;-85
2022/05/31 00:35:30;;;;;;;3.28;2.20;;;9.10;99.90;;;;;;5067626;28;20040;-84
2022/05/31 00:37:58;;;;;;;2.40;1.85;;;9.00;99.90;;;;;;5084482;28;20052;-84
2022/05/31 00:40:27;;;;;;;2.97;2.13;;;8.60;99.90;;;;;;5084888;28;20048;-85
2022/05/31 00:42:59;;;;;;;4.10;2.17;;;8.60;99.90;;;;;;5084213;28;20075;-85
2022/05/31 00:45:56;;;;;;;3.88;2.22;;;8.60;99.90;;;;;;5084144;28;20051;-85
2022/05/31 00:48:30;;;;;;;3.97;2.83;;;8.70;99.90;;;;;;5084246;28;20131;-85
2022/05/31 00:51:00;;;;;;;3.75;2.65;;;9.30;99.90;;;;;;5084416;28;20506;-84
2022/05/31 00:53:29;;;;;;;6.88;3.03;;;8.70;99.90;;;;;;5084498;28;20480;-84
2022/05/31 00:55:59;;;;;;;4.75;2.50;;;9.20;99.90;;;;;;5085104;28;20044;-84
2022/05/31 00:58:27;;;;;;;4.30;2.85;;;9.90;99.90;;;;;;5085073;28;20051;-84
2022/05/31 01:00:53;;;;;;;3.58;2.70;;;8.80;99.90;;;;;;5086047;28;20063;-85
2022/05/31 01:03:21;;;;;;;5.22;3.08;;;10.00;99.90;;;;;;5083519;28;20429;-84
2022/05/31 01:05:47;;;;;;;5.15;2.72;;;8.80;99.90;;;;;;5066929;28;20093;-84
2022/05/31 01:08:13;;;;;;;3.97;3.22;;;10.00;99.90;;;;;;5085259;28;20060;-85
2022/05/31 01:10:43;;;;;;;4.68;3.08;;;8.80;99.90;;;;;;5085510;28;20067;-84
2022/05/31 01:13:12;;;;;;;4.10;3.00;;;8.80;99.90;;;;;;5083933;28;20047;-85
2022/05/31 01:15:38;;;;;;;6.10;3.10;;;8.90;99.90;;;;;;5066652;28;20047;-85
2022/05/31 01:18:04;;;;;;;3.13;2.58;;;9.20;99.90;;;;;;5033850;28;20493;-85
2022/05/31 01:20:30;;;;;;;4.45;2.72;;;8.90;99.90;;;;;;5085197;28;20132;-85
2022/05/31 01:22:59;;;;;;;4.65;3.17;;;8.90;99.90;;;;;;5083627;28;20055;-85
2022/05/31 01:25:58;;;;;;;3.08;2.50;;;10.20;99.90;;;;;;5085033;28;20048;-85
2022/05/31 01:28:50;;;;;;;3.80;2.80;;;9.00;99.90;;;;;;5083109;28;20047;-84
2022/05/31 01:31:26;;;;;;;2.05;1.77;;;8.90;99.90;;;;;;5083584;28;20090;-85
2022/05/31 01:34:14;;;;;;;7.80;2.72;;;9.20;99.90;;;;;;5083996;28;20525;-85
2022/05/31 01:36:52;;;;;;;3.85;2.70;;;9.00;99.90;;;;;;5086745;28;20131;-85
2022/05/31 01:39:27;;;;;;;5.35;3.67;;;10.00;99.90;;;;;;5084993;28;20459;-84
2022/05/31 01:42:02;;;;;;;3.75;2.85;;;9.00;99.90;;;;;;5065335;28;20131;-85
2022/05/31 01:44:32;;;;;;;3.58;2.95;;;10.20;99.90;;;;;;5082849;28;20051;-85
2022/05/31 01:47:00;;;;;;;4.03;3.03;;;9.50;99.90;;;;;;5084770;28;20447;-85
2022/05/31 01:49:30;;;;;;;4.40;3.00;;;9.70;99.90;;;;;;5083064;28;20101;-85
2022/05/31 01:51:58;;;;;;;3.70;2.95;;;9.00;99.90;;;;;;5082988;28;20052;-84
2022/05/31 01:54:24;;;;;;;3.80;2.65;;;9.10;99.90;;;;;;5084016;28;20510;-84
2022/05/31 01:56:57;;;;;;;4.50;3.25;;;9.80;99.90;;;;;;5066521;28;20089;-84
2022/05/31 01:59:24;;;;;;;5.28;2.70;;;9.10;99.90;;;;;;5083574;28;20040;-85
2022/05/31 02:01:51;;;;;;;7.00;3.17;;;10.20;99.90;;;;;;5088186;28;20549;-83
2022/05/31 02:04:17;;;;;;;4.28;3.08;;;9.30;99.90;;;;;;5082975;28;20404;-85
2022/05/31 02:06:43;;;;;;;4.30;3.35;;;10.10;99.90;;;;;;5067803;28;20032;-86
2022/05/31 02:09:12;;;;;;;4.97;3.22;;;9.90;99.90;;;;;;5083596;28;20055;-84
2022/05/31 02:11:38;;;;;;;5.53;3.55;;;10.20;99.90;;;;;;5082714;28;20517;-84
2022/05/31 02:14:06;;;;;;;5.38;3.47;;;9.80;99.90;;;;;;5084585;28;20059;-84
2022/05/31 02:16:32;;;;;;;8.32;3.22;;;9.10;99.90;;;;;;5065839;28;20497;-84
2022/05/31 02:19:18;;;;;;;7.53;2.83;;;10.20;99.90;;;;;;5082844;28;20215;-84
2022/05/31 02:21:43;;;;;;;3.63;3.10;;;10.40;99.90;;;;;;5065703;28;20047;-84
2022/05/31 02:24:11;;;;;;;7.13;3.28;;;10.50;99.90;;;;;;5049043;28;20040;-84
2022/05/31 02:26:40;;;;;;;5.57;3.30;;;9.10;99.90;;;;;;5065484;28;20087;-84
2022/05/31 02:29:08;;;;;;;7.30;3.85;;;9.10;99.90;;;;;;5082639;28;20036;-84
2022/05/31 02:31:34;;;;;;;4.95;3.70;;;9.10;99.90;;;;;;5082142;28;20047;-84
2022/05/31 02:34:00;;;;;;;4.40;3.60;;;9.10;99.90;;;;;;5082375;28;20408;-83
2022/05/31 02:36:26;;;;;;;6.43;3.90;;;9.20;99.90;;;;;;5065536;28;20482;-84
2022/05/31 02:38:53;;;;;;;6.07;4.45;;;10.30;99.90;;;;;;5082142;28;20047;-84
2022/05/31 02:41:19;;;;;;;5.10;3.13;;;9.50;99.90;;;;;;5065012;28;20048;-85
2022/05/31 02:43:46;;;;;;;4.15;3.15;;;9.20;99.90;;;;;;5082078;28;20105;-84
2022/05/31 02:46:12;;;;;;;7.38;3.97;;;10.50;99.90;;;;;;5081987;28;20047;-84
2022/05/31 02:48:37;;;;;;;4.72;3.47;;;10.00;99.90;;;;;;5083892;28;20393;-84
2022/05/31 02:51:03;;;;;;;12.90;4.10;;;9.20;99.90;;;;;;5083476;28;20612;-84
2022/05/31 02:53:29;;;;;;;4.35;3.70;;;10.20;99.90;;;;;;5065443;28;20086;-84
2022/05/31 02:55:56;;;;;;;4.80;3.63;;;10.00;99.90;;;;;;5081615;28;20485;-84
2022/05/31 02:58:22;;;;;;;6.00;3.70;;;9.20;99.90;;;;;;5081505;28;20423;-84
2022/05/31 03:00:47;;;;;;;6.07;4.18;;;9.20;99.90;;;;;;5065183;28;20139;-84
2022/05/31 03:03:13;;;;;;;4.95;3.90;;;10.00;99.90;;;;;;5065555;28;20048;-84
2022/05/31 03:05:39;;;;;;;4.90;3.17;;;9.80;99.90;;;;;;5082293;28;20386;-84
2022/05/31 03:08:05;;;;;;;6.53;4.68;;;9.20;99.90;;;;;;5084335;28;20052;-84
2022/05/31 03:10:38;;;;;;;5.85;3.78;;;9.20;99.90;;;;;;5083621;28;20515;-84
2022/05/31 03:13:04;;;;;;;6.70;4.30;;;10.20;99.90;;;;;;5068162;28;20044;-83
2022/05/31 03:15:33;;;;;;;6.85;4.05;;;9.20;99.90;;;;;;5083634;28;20047;-84
2022/05/31 03:18:23;;;;;;;7.28;3.85;;;9.20;99.90;;;;;;5081949;28;20139;-84
2022/05/31 03:20:52;;;;;;;8.30;4.18;;;10.50;99.90;;;;;;5081714;28;20058;-84
2022/05/31 03:23:25;;;;;;;4.22;3.17;;;9.20;99.90;;;;;;5081997;28;20051;-84
2022/05/31 03:25:53;;;;;;;4.45;3.83;;;9.20;99.90;;;;;;5081451;28;20438;-84
2022/05/31 03:28:20;;;;;;;6.38;3.78;;;10.50;99.90;;;;;;5081527;28;20055;-84
2022/05/31 03:30:45;;;;;;;5.60;4.28;;;9.20;99.90;;;;;;5082333;28;20086;-85
2022/05/31 03:33:12;;;;;;;5.30;3.80;;;9.70;99.90;;;;;;5081981;28;20439;-84
2022/05/31 03:35:39;;;;;;;6.57;3.85;;;9.20;99.90;;;;;;5064823;28;20109;-84
2022/05/31 03:38:05;;;;;;;4.50;3.60;;;10.10;99.90;;;;;;5082965;28;20044;-84
2022/05/31 03:43:15;;;;;;;5.10;3.80;;;9.50;99.90;;;;;;5083875;28;20089;-83
2022/05/31 03:45:43;;;;;;;7.38;3.95;;;9.30;99.90;;;;;;5087152;28;20052;-84
2022/05/31 03:48:11;;;;;;;5.80;3.50;;;10.50;99.90;;;;;;5087281;28;20101;-83
2022/05/31 03:50:40;;;;;;;5.28;4.03;;;9.40;99.90;;;;;;5086674;28;20111;-83
2022/05/31 03:53:08;;;;;;;6.03;3.80;;;10.60;99.90;;;;;;5067199;28;20047;-84
2022/05/31 03:55:39;;;;;;;4.32;3.42;;;9.80;99.90;;;;;;5084644;28;20055;-82
2022/05/31 03:58:05;;;;;;;5.38;3.45;;;9.30;99.90;;;;;;5086317;28;20108;-85
2022/05/31 04:00:31;;;;;;;8.10;4.20;;;9.40;99.90;;;;;;5068116;28;20127;-84
2022/05/31 04:02:57;;;;;;;5.30;3.63;;;9.60;99.90;;;;;;5068125;28;20047;-85
2022/05/31 04:05:23;;;;;;;6.07;4.18;;;9.70;99.90;;;;;;5083580;28;20441;-84
2022/05/31 04:07:52;;;;;;;5.30;3.88;;;10.50;99.90;;;;;;5086135;28;20059;-84
2022/05/31 04:10:19;;;;;;;6.03;4.22;;;9.50;99.90;;;;;;5084961;28;20056;-84
2022/05/31 04:12:46;;;;;;;6.45;3.72;;;9.50;99.90;;;;;;5085719;28;20054;-84
2022/05/31 04:15:11;;;;;;;6.15;3.95;;;10.50;99.90;;;;;;5086208;28;20570;-84
2022/05/31 04:17:37;;;;;;;5.35;3.83;;;10.70;99.90;;;;;;5084850;28;20071;-84
2022/05/31 04:20:04;;;;;;;5.60;4.15;;;9.60;99.90;;;;;;5084747;28;20048;-84
2022/05/31 04:22:29;;;;;;;5.68;3.80;;;9.60;99.90;;;;;;5085133;28;20400;-83
2022/05/31 04:25:00;;;;;;;5.72;3.55;;;10.90;99.90;;;;;;5067865;28;20040;-84
2022/05/31 04:27:26;;;;;;;4.00;3.25;;;10.40;99.90;;;;;;5084983;28;20082;-84
2022/05/31 04:29:52;;;;;;;6.07;3.92;;;9.70;99.90;;;;;;5084853;28;20052;-83
2022/05/31 04:32:18;;;;;;;6.28;3.78;;;9.70;99.90;;;;;;5092345;28;20056;-84
2022/05/31 04:34:44;;;;;;;8.48;3.60;;;11.00;99.90;;;;;;5100828;28;20091;-85
2022/05/31 04:37:10;;;;;;;9.60;3.85;;;9.80;99.90;;;;;;5088020;28;20040;-82
2022/05/31 04:39:36;;;;;;;6.90;3.30;;;9.80;99.90;;;;;;5085636;28;20044;-81
2022/05/31 04:42:02;;;;;;;5.78;3.63;;;9.80;99.90;;;;;;5086254;28;20124;-83
2022/05/31 04:44:28;;;;;;;6.07;4.07;;;9.90;99.90;;;;;;5085190;28;20527;-85
2022/05/31 04:46:54;;;;;;;6.13;3.92;;;9.90;99.90;;;;;;5054444;28;20039;-87
2022/05/31 04:49:20;;;;;;;4.60;3.72;;;11.20;99.90;;;;;;5070459;28;20097;-85
2022/05/31 04:51:47;;;;;;;5.97;3.75;;;10.70;99.90;;;;;;5085213;28;20132;-86
2022/05/31 04:54:13;;;;;;;6.97;3.83;;;9.90;99.90;;;;;;5084417;28;20040;-84
2022/05/31 04:56:39;;;;;;;3.30;3.00;;;10.00;99.90;;;;;;5085647;28;20139;-84
2022/05/31 04:59:05;;;;;;;6.75;3.40;;;10.00;99.90;;;;;;5084148;28;20130;-82
2022/05/31 05:01:34;;;;;;;4.90;3.95;;;10.00;99.90;;;;;;5085720;28;20040;-82
2022/05/31 05:04:00;;;;;;;10.82;4.18;;;11.20;99.90;;;;;;5085403;28;20412;-81
2022/05/31 05:06:26;;;;;;;8.65;4.75;;;9.20;99.90;;;;;;5085173;28;20119;-81
2022/05/31 05:08:52;;;;;;;5.40;3.85;;;10.10;99.90;;;;;;5085175;28;20052;-81
2022/05/31 05:11:21;;;;;;;5.35;3.92;;;10.90;99.90;;;;;;5085216;28;20052;-81
2022/05/31 05:13:47;;;;;;;5.07;3.83;;;10.10;99.90;;;;;;5085292;28;20089;-82
2022/05/31 05:16:15;;;;;;;8.00;4.60;;;11.50;99.90;;;;;;5085765;28;20083;-82
2022/05/31 05:18:41;;;;;;;6.43;4.28;;;10.50;99.90;;;;;;5085333;28;20044;-84
2022/05/31 05:21:10;;;;;;;5.72;4.30;;;10.90;99.90;;;;;;5083922;28;20119;-79
2022/05/31 05:23:36;;;;;;;6.60;4.45;;;11.00;99.90;;;;;;5085401;28;20033;-85
2022/05/31 05:26:02;;;;;;;6.75;4.15;;;11.40;99.90;;;;;;5083823;28;20062;-84
2022/05/31 05:31:27;;;;;;;7.80;4.18;;;10.50;99.90;;;;;;5084779;28;20055;-88
2022/05/31 05:33:54;;;;;;;5.68;4.63;;;10.50;99.90;;;;;;5086098;28;20044;-88
2022/05/31 05:36:20;;;;;;;5.10;4.20;;;10.60;99.90;;;;;;5084660;28;20055;-87
2022/05/31 05:38:47;;;;;;;5.95;4.78;;;11.00;99.90;;;;;;5067941;28;20083;-87
2022/05/31 05:41:13;;;;;;;5.70;4.07;;;10.80;99.90;;;;;;5085789;28;20180;-87
2022/05/31 05:43:40;;;;;;;5.88;4.72;;;10.80;99.90;;;;;;5086185;28;20067;-87
2022/05/31 05:46:18;;;;;;;5.40;4.55;;;12.00;99.90;;;;;;5085327;28;20113;-87
2022/05/31 05:48:45;;;;;;;5.85;3.78;;;11.10;99.90;;;;;;5069923;28;20055;-88
2022/05/31 05:51:19;;;;;;;5.13;4.25;;;11.00;99.90;;;;;;5085116;28;20485;-88
2022/05/31 05:53:45;;;;;;;8.25;4.63;;;11.00;99.90;;;;;;5084904;28;20553;-90
2022/05/31 05:56:12;;;;;;;8.05;4.20;;;11.70;99.90;;;;;;5068494;28;20141;-87
2022/05/31 05:58:39;;;;;;;6.22;4.05;;;11.10;99.90;;;;;;5084175;28;20543;-87
2022/05/31 06:01:10;;;;;;;5.32;4.25;;;11.20;99.90;;;;;;5084332;28;20054;-86
2022/05/31 06:03:46;;;;;;;5.85;4.00;;;11.40;99.90;;;;;;5083788;28;20501;-86
2022/05/31 06:06:14;;;;;;;6.45;4.63;;;11.80;99.90;;;;;;5067037;28;20044;-86
2022/05/31 06:08:47;;;;;;;4.72;4.00;;;11.40;99.90;;;;;;5050098;28;20044;-85
2022/05/31 06:11:15;;;;;;;;;;;11.40;99.90;;;;;;5067611;28;20456;-86
2022/05/31 06:13:58;;;;;;;6.32;4.30;;;11.50;99.90;;;;;;5083743;28;19920;-87
2022/05/31 06:16:30;;;;;;;7.30;4.30;;;11.50;99.90;;;;;;5066953;28;20044;-86
2022/05/31 06:19:10;;;;;;;5.53;4.22;;;12.10;99.90;;;;;;5083834;28;20528;-87
2022/05/31 06:21:36;;;;;;;4.72;3.95;;;11.60;99.90;;;;;;5084611;28;20459;-88
2022/05/31 06:24:02;;;;;;;4.88;3.67;;;12.90;99.90;;;;;;5067120;28;20193;-86
2022/05/31 06:26:29;;;;;;;5.82;4.22;;;11.70;99.90;;;;;;5084479;28;20079;-87
2022/05/31 06:28:55;;;;;;;5.22;4.25;;;12.30;99.90;;;;;;5084013;28;20056;-87
2022/05/31 06:31:20;;;;;;;5.90;4.10;;;11.90;99.90;;;;;;5082980;28;20358;-87
2022/05/31 06:33:46;;;;;;;4.93;3.97;;;12.00;99.90;;;;;;5082821;28;20044;-86
2022/05/31 06:36:14;;;;;;;7.18;4.45;;;12.00;99.90;;;;;;5082592;28;20048;-86
2022/05/31 06:38:40;;;;;;;5.85;4.50;;;12.60;99.90;;;;;;5065564;28;20044;-86
2022/05/31 06:41:06;;;;;;;5.75;5.05;;;12.20;99.90;;;;;;5081669;28;20496;-87
2022/05/31 06:43:34;;;;;;;5.43;3.70;;;12.30;99.90;;;;;;5049209;28;20468;-86
2022/05/31 06:46:07;;;;;;;10.02;5.18;;;12.40;99.90;;;;;;5082167;28;20047;-86
2022/05/31 06:48:33;;;;;;;5.25;4.03;;;13.00;99.90;;;;;;5082262;28;20048;-87
2022/05/31 06:51:07;;;;;;;9.63;4.22;;;12.50;99.90;;;;;;5081683;28;20036;-87
2022/05/31 06:59:01;;;;;;;6.03;4.05;;;12.70;99.90;;;;;;5054744;28;20463;-87
2022/05/31 07:01:35;;;;;;;5.75;4.38;;;12.80;99.90;;;;;;5068790;28;20051;-88
2022/05/31 07:04:01;;;;;;;5.85;4.28;;;12.90;99.90;;;;;;5073335;28;20037;-85
2022/05/31 07:06:27;;;;;;;5.10;4.40;;;13.00;99.90;;;;;;5103874;28;20110;-87
2022/05/31 07:08:53;;;;;;;8.60;5.35;;;13.10;99.90;;;;;;5083423;28;20048;-87
2022/05/31 07:11:20;;;;;;;7.00;4.13;;;13.20;99.90;;;;;;5065941;28;20048;-88
2022/05/31 07:13:46;;;;;;;9.48;4.32;;;12.60;99.90;;;;;;5081924;28;20044;-87
2022/05/31 07:16:12;;;;;;;5.70;4.15;;;13.40;99.90;;;;;;5064978;28;20044;-88
2022/05/31 07:18:37;;;;;;;6.00;4.10;;;13.50;99.90;;;;;;5065035;28;20043;-89
2022/05/31 07:21:03;;;;;;;7.07;4.53;;;14.50;99.90;;;;;;5082182;28;20029;-88
2022/05/31 07:23:29;;;;;;;5.28;3.45;;;13.80;99.90;;;;;;5048623;28;20156;-87
2022/05/31 07:25:54;;;;;;;5.38;4.10;;;13.90;99.90;;;;;;5085454;28;20040;-87
2022/05/31 07:28:20;;;;;;;3.97;3.58;;;14.10;99.90;;;;;;5085942;28;20497;-88
2022/05/31 07:30:46;;;;;;;7.13;3.65;;;14.20;99.90;;;;;;5066561;28;20040;-87
2022/05/31 07:33:12;;;;;;;4.60;3.50;;;14.40;99.90;;;;;;5082783;28;20043;-89
2022/05/31 07:35:39;;;;;;;4.65;3.30;;;14.60;99.90;;;;;;5050290;28;20127;-92
2022/05/31 07:38:05;;;;;;;6.25;3.05;;;14.60;99.90;;;;;;5067442;28;20079;-91
2022/05/31 07:40:31;;;;;;;8.65;3.15;;;14.80;99.90;;;;;;5036323;28;20090;-91
2022/05/31 07:42:57;;;;;;;4.00;2.95;;;15.00;99.90;;;;;;5052993;28;20055;-89
2022/05/31 07:45:23;;;;;;;3.55;2.67;;;15.00;99.90;;;;;;5087096;28;20165;-91
2022/05/31 07:47:49;;;;;;;6.63;3.22;;;15.00;99.90;;;;;;5038462;28;20135;-92
2022/05/31 07:50:15;;;;;;;2.58;1.92;;;15.10;99.90;;;;;;5054334;28;20107;-91
2022/05/31 07:52:41;;;;;;;3.95;2.42;;;15.30;99.90;;;;;;5053897;28;20040;-91
2022/05/31 07:55:09;;;;;;;5.47;2.67;;;15.20;99.90;;;;;;5036800;28;20044;-90
2022/05/31 08:00:19;;;;;;;5.78;2.63;;;15.50;99.90;;;;;;5073761;28;20134;-91
2022/05/31 08:02:45;;;;;;;5.00;2.50;;;15.70;99.90;;;;;;5082201;28;20032;-90
2022/05/31 08:05:11;;;;;;;3.92;2.85;;;15.90;99.90;;;;;;5078454;28;20051;-88
2022/05/31 08:07:36;;;;;;;6.18;2.65;;;16.80;99.90;;;;;;5109584;28;20063;-87
2022/05/31 08:10:02;;;;;;;3.67;2.53;;;16.30;99.90;;;;;;5089323;28;20078;-88
2022/05/31 08:12:28;;;;;;;4.55;2.72;;;16.50;99.90;;;;;;5090171;28;20048;-88
2022/05/31 08:14:54;;;;;;;3.15;2.08;;;16.60;99.90;;;;;;5085314;28;20048;-89
2022/05/31 08:17:20;;;;;;;4.75;2.50;;;16.70;99.90;;;;;;5087121;28;20116;-88
2022/05/31 08:19:45;;;;;;;3.80;1.88;;;16.70;99.90;;;;;;5085646;28;20169;-88
2022/05/31 08:22:11;;;;;;;3.70;2.03;;;16.70;99.90;;;;;;5068162;28;20525;-88
2022/05/31 08:24:37;;;;;;;4.43;1.58;;;16.80;99.90;;;;;;5089378;28;20054;-87
2022/05/31 08:27:03;;;;;;;2.78;1.77;;;18.00;99.90;;;;;;5086329;28;20121;-87
2022/05/31 08:29:30;;;;;;;4.32;2.00;;;17.10;99.90;;;;;;5086594;28;20420;-88
2022/05/31 08:31:58;;;;;;;9.57;2.17;;;17.30;99.90;;;;;;5069161;28;20131;-88
2022/05/31 08:34:26;;;;;;;4.00;2.22;;;17.60;99.90;;;;;;5068908;28;20044;-88
2022/05/31 08:36:53;;;;;;;2.83;1.95;;;18.10;99.90;;;;;;5068774;28;20481;-88
2022/05/31 08:39:19;;;;;;;4.15;2.10;;;18.00;99.90;;;;;;5053544;28;20090;-88
2022/05/31 08:41:48;;;;;;;4.35;2.08;;;18.00;99.90;;;;;;5069319;28;20075;-88
2022/05/31 08:44:31;;;;;;;2.75;1.90;;;18.10;99.90;;;;;;5084553;28;20082;-88
2022/05/31 08:47:22;;;;;;;4.15;2.00;;;18.10;99.90;;;;;;5067583;28;20035;-88
2022/05/31 08:53:30;;;;;;;2.92;1.75;;;18.40;99.90;;;;;;5084323;28;20055;-88
2022/05/31 08:58:58;;;;;;;2.85;2.00;;;18.40;99.90;;;;;;5084303;28;20050;-87
2022/05/31 09:01:29;;;;;;;4.88;2.53;;;18.30;99.90;;;;;;5084359;28;20088;-92
2022/05/31 09:04:29;;;;;;;2.22;1.90;;;18.30;99.90;;;;;;5067121;28;20036;-87
2022/05/31 09:07:08;;;;;;;2.85;1.27;;;18.20;99.90;;;;;;5062616;28;20052;-86
2022/05/31 09:10:13;;;;;;;4.50;1.30;;;18.20;99.90;;;;;;5072184;28;20063;-86
2022/05/31 09:13:02;;;;;;;4.30;1.63;;;18.10;99.90;;;;;;4992839;28;20088;-87
2022/05/31 09:15:50;;;;;;;3.58;2.03;;;17.90;99.90;;;;;;5064912;28;20056;-86
2022/05/31 09:18:39;;;;;;;2.38;1.30;;;17.90;99.90;;;;;;5085624;28;20119;-86
2022/05/31 09:21:13;;;;;;;3.30;1.48;;;17.80;99.90;;;;;;5083493;28;20142;-86
2022/05/31 09:23:39;;;;;;;4.15;2.08;;;17.70;99.90;;;;;;5066891;28;20044;-86
2022/05/31 09:26:13;;;;;;;6.72;1.80;;;17.90;99.90;;;;;;5050463;28;20512;-86
2022/05/31 09:28:52;;;;;;;4.10;1.73;;;17.90;99.90;;;;;;5087124;28;20067;-86
2022/05/31 09:32:00;;;;;;;5.13;1.60;;;18.10;99.90;;;;;;5092029;28;20358;-87
2022/05/31 09:34:50;;;;;;;3.75;1.75;;;18.20;99.90;;;;;;5013954;28;20591;-86
2022/05/31 09:37:36;;;;;;;3.05;1.90;;;18.40;99.20;;;;;;5016541;28;20092;-88
2022/05/31 09:40:01;;;;;;;2.40;1.58;;;18.40;99.90;;;;;;5040188;28;20097;-87
2022/05/31 09:42:39;;;;;;;5.72;1.58;;;18.50;99.90;;;;;;5067981;28;20048;-86
2022/05/31 09:45:19;;;;;;;4.35;2.20;;;18.60;98.90;;;;;;5091825;28;20032;-86
2022/05/31 09:47:45;;;;;;;2.25;1.45;;;18.60;99.50;;;;;;5102767;28;20107;-87
2022/05/31 09:50:11;;;;;;;2.42;0.90;;;18.70;99.90;;;;;;5084639;28;20047;-87
2022/05/31 09:52:45;;;;;;;1.95;1.00;;;18.60;98.80;;;;;;5093376;28;20766;-88
2022/05/31 09:58:10;;;;;;;4.97;1.48;;;18.50;97.20;;;;;;5083174;28;20078;-87
2022/05/31 10:00:36;;;;;;;;;;;18.60;98.10;;;;;;5067405;28;20040;-88
2022/05/31 10:03:12;;;;;;;2.15;1.40;;;18.60;95.80;;;;;;5082312;28;19927;-87
2022/05/31 10:05:40;;;;;;;3.15;1.40;;;18.90;97.00;;;;;;5083250;28;20371;-88
2022/05/31 10:08:29;;;;;;;4.40;1.67;;;17.90;97.40;;;;;;5065949;28;20104;-85
2022/05/31 10:10:54;;;;;;;3.47;1.45;;;18.90;96.80;;;;;;5066169;28;20817;-88
2022/05/31 10:13:40;;;;;;;9.40;2.60;;;19.10;96.50;;;;;;5049946;28;20048;-85
2022/05/31 10:16:22;;;;;;;5.28;1.73;;;19.10;87.40;;;;;;5082955;28;20530;-85
2022/05/31 10:18:52;;;;;;;6.07;2.63;;;18.90;90.00;;;;;;5066742;28;20048;-86
2022/05/31 10:21:40;;;;;;;5.15;1.70;;;18.70;92.40;;;;;;5065518;28;20040;-87
2022/05/31 10:24:19;;;;;;;5.78;2.10;;;18.60;90.20;;;;;;5083264;28;20400;-87
2022/05/31 10:27:07;;;;;;;4.45;1.92;;;18.60;92.50;;;;;;5083386;28;20416;-87
2022/05/31 10:29:44;;;;;;;3.10;1.52;;;18.60;93.00;;;;;;5082102;28;20485;-87
2022/05/31 10:32:27;;;;;;;2.30;1.27;;;18.50;94.00;;;;;;5065563;28;20044;-88
2022/05/31 10:35:15;;;;;;;5.05;1.77;;;18.50;94.00;;;;;;5065613;28;20047;-86
2022/05/31 10:37:59;;;;;;;4.18;1.58;;;18.50;94.50;;;;;;5083033;28;20047;-87
2022/05/31 10:40:31;;;;;;;2.90;1.20;;;18.40;90.50;;;;;;5065668;28;20081;-87
2022/05/31 10:43:04;;;;;;;2.58;0.95;;;18.20;90.90;;;;;;5067534;28;20108;-86
2022/05/31 10:45:32;;;;;;;2.83;1.13;;;18.10;91.00;;;;;;5067936;28;20477;-88
2022/05/31 10:48:00;;;;;;;2.42;1.42;;;17.90;90.10;;;;;;5072531;28;20820;-88
2022/05/31 10:51:07;;;;;;;8.85;1.35;;;17.80;88.30;;;;;;5059798;28;20111;-87
2022/05/31 10:53:48;;;;;;;3.42;1.55;;;17.60;78.50;;;;;;5054370;28;20052;-88
2022/05/31 10:56:37;;;;;;;3.80;1.10;;;17.40;85.20;;;;;;5066424;28;20419;-87
2022/05/31 10:59:17;;;;;;;4.28;1.65;;;17.30;85.50;;;;;;5084282;28;20051;-87
2022/05/31 11:01:49;;;;;;;3.15;1.58;;;17.40;86.30;;;;;;5082552;28;20056;-85
2022/05/31 11:04:31;;;;;;;2.17;1.15;;;17.70;89.10;;;;;;5082984;28;20043;-87
2022/05/31 11:07:19;;;;;;;2.20;1.30;;;17.50;88.10;;;;;;5082570;28;20044;-88
2022/05/31 11:13:04;;;;;;;4.82;1.80;;;17.70;87.70;;;;;;5081978;28;20044;-88
2022/05/31 11:16:14;;;;;;;2.65;1.65;;;17.90;80.50;;;;;;5088528;28;20052;-90
2022/05/31 11:18:45;;;;;;;3.60;1.20;;;18.00;82.20;;;;;;5088044;28;20056;-90
2022/05/31 11:21:40;;;;;;;4.05;1.38;;;18.10;89.20;;;;;;5089438;28;20048;-88
2022/05/31 11:24:37;;;;;;;2.85;1.17;;;18.20;81.30;;;;;;5086325;28;20056;-89
2022/05/31 11:27:10;;;;;;;4.40;1.58;;;18.30;73.50;;;;;;5069733;28;20127;-88
2022/05/31 11:30:00;;;;;;;1.90;1.27;;;18.30;83.00;;;;;;5069192;28;20392;-88
2022/05/31 11:33:07;;;;;;;2.22;1.15;;;18.40;73.00;;;;;;5069641;28;20054;-88
2022/05/31 11:36:03;;;;;;;3.80;1.02;;;18.50;70.40;;;;;;5087713;28;20093;-88
2022/05/31 11:39:00;;;;;;;4.53;1.70;;;18.60;74.20;;;;;;5089384;28;20102;-88
2022/05/31 11:41:37;;;;;;;5.95;1.50;;;18.80;74.50;;;;;;5103007;28;20088;-87
2022/05/31 11:44:27;;;;;;;1.67;1.17;;;19.00;72.30;;;;;;5082012;28;20048;-88
2022/05/31 11:47:05;;;;;;;5.07;1.77;;;19.30;74.60;;;;;;5086420;28;20040;-87
2022/05/31 11:49:58;;;;;;;7.03;1.42;;;19.60;70.40;;;;;;5069392;28;20048;-87
2022/05/31 11:52:24;;;;;;;5.70;1.52;;;19.90;65.70;;;;;;5068585;28;20056;-86
2022/05/31 11:57:59;;;;;;;2.85;1.08;;;20.10;66.10;;;;;;5085627;28;20047;-87
2022/05/31 12:00:32;;;;;;;3.05;1.00;;;20.00;63.10;;;;;;5070295;28;20047;-85
2022/05/31 12:03:26;;;;;;;3.95;1.58;;;20.50;61.90;;;;;;5091821;28;20047;-83
2022/05/31 12:06:08;;;;;;;2.67;1.30;;;19.80;58.30;;;;;;5089305;28;20099;-88
2022/05/31 12:09:09;;;;;;;3.30;1.58;;;19.90;58.20;;;;;;5068582;28;20472;-88
2022/05/31 12:12:13;;;;;;;2.10;1.42;;;19.90;59.40;;;;;;5067728;28;20508;-87
2022/05/31 12:15:19;;;;;;;2.75;0.85;;;20.20;59.20;;;;;;5068291;28;20112;-89
2022/05/31 12:18:03;;;;;;;4.50;1.42;;;20.50;58.20;;;;;;5076166;28;20059;-87
2022/05/31 12:20:38;;;;;;;3.85;1.50;;;20.90;57.50;;;;;;5068482;28;20119;-86
2022/05/31 12:23:34;;;;;;;4.50;1.60;;;21.40;58.40;;;;;;5069235;28;20102;-86
2022/05/31 12:26:04;;;;;;;3.50;1.30;;;20.90;58.50;;;;;;5067259;28;20185;-86
2022/05/31 12:28:47;;;;;;;2.75;1.42;;;20.90;60.10;;;;;;5069271;28;20032;-86
2022/05/31 12:31:30;;;;;;;4.80;1.38;;;20.80;58.90;;;;;;5084880;28;20144;-87
2022/05/31 12:34:21;;;;;;;2.58;1.55;;;20.70;57.00;;;;;;5068486;28;20182;-87
2022/05/31 12:37:09;;;;;;;6.22;2.03;;;20.50;56.10;;;;;;5067500;28;20032;-87
2022/05/31 12:39:39;;;;;;;3.45;1.98;;;20.30;56.70;;;;;;5066416;28;20120;-86
2022/05/31 12:42:36;;;;;;;2.78;1.65;;;19.80;59.10;;;;;;5084722;28;20376;-86
2022/05/31 12:45:19;;;;;;;2.03;1.42;;;20.00;60.10;;;;;;5067642;28;20047;-86
2022/05/31 12:48:33;;;;;;;3.22;1.60;;;19.30;60.80;;;;;;5067874;28;20055;-86
2022/05/31 12:51:02;;;;;;;3.92;1.77;;;18.70;62.30;;;;;;5084447;28;20230;-86
2022/05/31 12:53:40;;;;;;;3.03;1.85;;;18.80;66.80;;;;;;5083570;28;20044;-86
2022/05/31 12:56:14;;;;;;;4.82;1.63;;;18.60;66.90;;;;;;5066604;28;20044;-86
2022/05/31 12:58:49;;;;;;;2.28;1.60;;;18.30;68.10;;;;;;5068425;28;20035;-85
2022/05/31 13:01:34;;;;;;;3.38;1.50;;;17.80;67.90;;;;;;5084382;28;20048;-84
2022/05/31 13:04:52;;;;;;;4.05;1.50;;;17.70;67.90;;;;;;5081846;28;20750;-88
2022/05/31 13:08:15;;;;;;;3.42;1.50;;;17.00;63.60;;;;;;5071933;28;20052;-87
2022/05/31 13:25:02;;;;;;;3.40;1.67;;;17.30;71.10;;;;;;5077593;28;20056;-85
2022/05/31 13:28:45;;;;;;;2.95;1.55;;;17.40;71.90;;;;;;5092089;28;20056;-84
2022/05/31 13:32:07;;;;;;;3.63;1.50;;;17.40;74.10;;;;;;5016681;28;20080;-86
2022/05/31 13:35:29;;;;;;;2.47;1.63;;;17.10;76.40;;;;;;4995216;28;20053;-86
2022/05/31 13:43:14;;;;;;;7.15;1.10;;;16.40;74.30;;;;;;4946886;29;20053;-85
2022/05/31 14:05:29;;;;;;;3.22;1.40;;;17.50;79.40;;;;;;5004888;28;20080;-85
2022/05/31 14:20:25;;;;;;;3.03;1.35;;;18.00;77.50;;;;;;4964867;28;20498;-86
2022/05/31 14:24:14;;;;;;;;;;;;;;;;;;;;;
2022/05/31 14:27:40;;;;;;;2.30;1.50;;;17.90;72.20;;;;;;4836808;29;20065;-85
2022/05/31 14:34:55;;;;;;;2.75;1.45;;;17.70;67.90;;;;;;4858588;29;20190;-85
2022/05/31 14:53:55;;;;;;;;;;;;;;;;;;;;;
2022/05/31 15:04:27;;;;;;;7.22;3.40;;;16.60;72.70;;;;;;5086905;27;20043;-86
2022/05/31 15:21:52;;;;;;;;;;;;;;;;;;;;;
2022/05/31 15:25:08;;;;;;;6.72;3.78;;;17.50;72.10;;;;;;5044853;28;20041;-86
2022/05/31 15:31:40;;;;;;;9.75;3.58;;;17.00;74.00;;;;;;5064141;28;20106;-87
2022/05/31 15:34:47;;;;;;;9.15;4.15;;;17.30;71.20;;;;;;5054611;28;20053;-87
2022/05/31 15:38:10;;;;;;;5.90;3.50;;;16.50;72.10;;;;;;5004372;28;20140;-86